createdAt,value
2022-12-13T00:01:23.280Z,0.00
2022-12-13T00:03:53.724Z,0.00
2022-12-13T00:06:21.671Z,0.00
2022-12-13T00:08:49.863Z,0.00
2022-12-13T00:11:19.687Z,0.00
2022-12-13T00:13:48.481Z,0.00
2022-12-13T00:16:18.095Z,0.00
2022-12-13T00:18:48.191Z,0.00
2022-12-13T00:21:19.723Z,-0.10
2022-12-13T00:23:48.287Z,-0.10
2022-12-13T00:26:17.655Z,-0.10
2022-12-13T00:28:49.306Z,-0.10
2022-12-13T00:34:06.390Z,-0.10
2022-12-13T00:36:34.306Z,-0.10
2022-12-13T00:39:02.498Z,-0.10
2022-12-13T00:41:32.766Z,-0.20
2022-12-13T00:44:02.882Z,-0.10
2022-12-13T00:46:31.055Z,-0.20
2022-12-13T00:49:01.156Z,-0.20
2022-12-13T00:51:30.846Z,-0.20
2022-12-13T00:53:59.542Z,-0.30
2022-12-13T00:56:29.387Z,-0.20
2022-12-13T00:58:57.956Z,-0.30
2022-12-13T01:01:29.872Z,-0.30
2022-12-13T01:04:00.753Z,-0.30
2022-12-13T01:06:30.936Z,-0.30
2022-12-13T01:08:58.999Z,-0.30
2022-12-13T01:11:27.369Z,-0.30
2022-12-13T01:13:55.258Z,-0.30
2022-12-13T01:16:23.233Z,-0.30
2022-12-13T01:18:52.770Z,-0.30
2022-12-13T01:21:22.264Z,-0.30
2022-12-13T01:23:50.655Z,-0.30
2022-12-13T01:26:22.476Z,-0.20
2022-12-13T01:28:50.465Z,-0.30
2022-12-13T01:31:22.835Z,-0.30
2022-12-13T01:33:52.252Z,-0.30
2022-12-13T01:36:27.644Z,-0.30
2022-12-13T01:38:58.803Z,-0.40
2022-12-13T01:41:28.012Z,-0.40
2022-12-13T01:44:00.977Z,-0.40
2022-12-13T01:46:29.087Z,-0.40
2022-12-13T01:49:04.122Z,-0.50
2022-12-13T01:51:38.825Z,-0.50
2022-12-13T01:54:09.183Z,-0.50
2022-12-13T01:56:42.566Z,-0.60
2022-12-13T01:59:13.724Z,-0.60
2022-12-13T02:01:42.254Z,-0.70
2022-12-13T02:04:11.545Z,-0.70
2022-12-13T02:06:43.496Z,-0.70
2022-12-13T02:09:12.253Z,-0.70
2022-12-13T02:11:43.566Z,-0.50
2022-12-13T02:14:11.994Z,-0.70
2022-12-13T02:16:50.351Z,-0.60
2022-12-13T02:19:54.337Z,-0.60
2022-12-13T02:22:41.338Z,-0.60
2022-12-13T02:25:34.090Z,-0.70
2022-12-13T02:28:30.481Z,-0.60
2022-12-13T02:31:07.947Z,-0.70
2022-12-13T02:33:53.845Z,-0.60
2022-12-13T02:36:36.004Z,-0.60
2022-12-13T02:39:14.538Z,-0.60
2022-12-13T02:41:49.551Z,-0.70
2022-12-13T02:44:23.044Z,-0.70
2022-12-13T02:46:56.336Z,-0.60
2022-12-13T02:49:26.090Z,-0.60
2022-12-13T02:51:54.860Z,-0.60
2022-12-13T02:54:24.164Z,-0.70
2022-12-13T02:56:56.255Z,-0.80
2022-12-13T02:59:28.932Z,-0.90
2022-12-13T03:02:10.257Z,-0.90
2022-12-13T03:05:03.066Z,-0.90
2022-12-13T03:07:39.348Z,-1.00
2022-12-13T03:10:11.103Z,-1.10
2022-12-13T03:13:04.185Z,-1.10
2022-12-13T03:15:39.931Z,-1.20
2022-12-13T03:18:16.336Z,-1.30
2022-12-13T03:20:48.347Z,-1.20
2022-12-13T03:23:17.241Z,-1.20
2022-12-13T03:25:46.823Z,-1.20
2022-12-13T03:28:14.737Z,-1.20
2022-12-13T03:30:42.688Z,-1.20
2022-12-13T03:33:11.961Z,-1.30
2022-12-13T03:35:44.746Z,-1.40
2022-12-13T03:38:21.384Z,-1.50
2022-12-13T03:40:52.644Z,-1.50
2022-12-13T03:43:21.743Z,-1.40
2022-12-13T03:45:51.097Z,-1.40
2022-12-13T03:48:23.025Z,-1.40
2022-12-13T03:50:52.073Z,-1.40
2022-12-13T03:53:22.287Z,-1.40
2022-12-13T03:56:00.805Z,-1.40
2022-12-13T03:58:35.627Z,-1.50
2022-12-13T04:01:06.807Z,-1.50
2022-12-13T04:03:36.308Z,-1.40
2022-12-13T04:06:04.835Z,-1.30
2022-12-13T04:08:32.868Z,-1.40
2022-12-13T04:11:20.882Z,-1.30
2022-12-13T04:13:47.804Z,-1.30
2022-12-13T04:16:15.756Z,-1.30
2022-12-13T04:18:45.068Z,-1.30
2022-12-13T04:21:12.986Z,-1.30
2022-12-13T04:23:40.960Z,-1.30
2022-12-13T04:26:08.891Z,-1.30
2022-12-13T04:28:36.994Z,-1.30
2022-12-13T04:31:05.026Z,-1.30
2022-12-13T04:33:33.746Z,-1.40
2022-12-13T04:36:03.046Z,-1.40
2022-12-13T04:38:30.935Z,-1.40
2022-12-13T04:41:07.445Z,-1.30
2022-12-13T04:43:35.399Z,-1.30
2022-12-13T04:46:03.403Z,-1.40
2022-12-13T04:48:32.464Z,-1.30
2022-12-13T04:51:02.175Z,-1.20
2022-12-13T04:53:30.611Z,-1.30
2022-12-13T04:55:58.673Z,-1.30
2022-12-13T04:58:26.610Z,-1.40
2022-12-13T05:00:54.508Z,-1.40
2022-12-13T05:03:22.458Z,-1.40
2022-12-13T05:05:50.543Z,-1.30
2022-12-13T05:08:19.938Z,-1.40
2022-12-13T05:10:47.846Z,-1.40
2022-12-13T05:13:15.990Z,-1.50
2022-12-13T05:15:43.867Z,-1.50
2022-12-13T05:18:11.765Z,-1.40
2022-12-13T05:20:40.104Z,-1.30
2022-12-13T05:23:08.178Z,-1.20
2022-12-13T05:25:37.768Z,-1.30
2022-12-13T05:28:08.873Z,-1.30
2022-12-13T05:30:54.489Z,-1.40
2022-12-13T05:33:22.820Z,-1.40
2022-12-13T05:35:52.955Z,-1.40
2022-12-13T05:38:24.166Z,-1.40
2022-12-13T05:40:53.418Z,-1.40
2022-12-13T05:43:22.469Z,-1.50
2022-12-13T05:45:50.758Z,-1.50
2022-12-13T05:48:24.613Z,-1.60
2022-12-13T05:51:11.108Z,-1.60
2022-12-13T05:53:40.248Z,-1.70
2022-12-13T05:56:10.596Z,-1.60
2022-12-13T05:58:39.596Z,-1.60
2022-12-13T06:01:09.081Z,-1.60
2022-12-13T06:03:37.309Z,-1.60
2022-12-13T06:06:06.652Z,-1.70
2022-12-13T06:08:35.231Z,-1.60
2022-12-13T06:11:11.215Z,-1.50
2022-12-13T06:13:43.558Z,-1.50
2022-12-13T06:16:22.548Z,-1.50
2022-12-13T06:19:03.654Z,-1.60
2022-12-13T06:21:44.207Z,-1.70
2022-12-13T06:24:15.526Z,-1.60
2022-12-13T06:26:44.878Z,-1.50
2022-12-13T06:29:23.713Z,-1.50
2022-12-13T06:32:01.891Z,-1.50
2022-12-13T06:34:31.947Z,-1.50
2022-12-13T06:37:00.909Z,-1.50
2022-12-13T06:39:38.901Z,-1.40
2022-12-13T06:42:09.044Z,-1.50
2022-12-13T06:44:38.323Z,-1.50
2022-12-13T06:47:11.824Z,-1.50
2022-12-13T06:49:42.952Z,-1.60
2022-12-13T06:52:13.039Z,-1.60
2022-12-13T06:54:41.178Z,-1.60
2022-12-13T06:57:09.625Z,-1.60
2022-12-13T06:59:39.070Z,-1.60
2022-12-13T07:02:24.523Z,-1.50
2022-12-13T07:04:54.763Z,-1.50
2022-12-13T07:07:22.749Z,-1.50
2022-12-13T07:09:50.626Z,-1.40
2022-12-13T07:12:19.240Z,-1.50
2022-12-13T07:14:48.527Z,-1.50
2022-12-13T07:17:32.391Z,-1.50
2022-12-13T07:20:03.014Z,-1.60
2022-12-13T07:22:34.700Z,-1.60
2022-12-13T07:25:04.813Z,-1.50
2022-12-13T07:27:32.939Z,-1.50
2022-12-13T07:30:02.607Z,-1.60
2022-12-13T07:32:30.524Z,-1.60
2022-12-13T07:34:58.411Z,-1.50
2022-12-13T07:37:30.245Z,-1.50
2022-12-13T07:40:04.099Z,-1.50
2022-12-13T07:42:32.750Z,-1.40
2022-12-13T07:45:02.030Z,-1.20
2022-12-13T07:47:31.068Z,-1.20
2022-12-13T07:49:59.538Z,-1.20
2022-12-13T07:52:29.659Z,-1.10
2022-12-13T07:54:57.538Z,-1.20
2022-12-13T07:57:25.464Z,-1.30
2022-12-13T07:59:53.370Z,-1.30
2022-12-13T08:02:22.615Z,-1.20
2022-12-13T08:04:54.506Z,-1.10
2022-12-13T08:07:23.058Z,-1.10
2022-12-13T08:09:52.918Z,-1.10
2022-12-13T08:12:22.518Z,-1.10
2022-12-13T08:14:53.093Z,-1.10
2022-12-13T08:17:23.202Z,-1.10
2022-12-13T08:19:51.089Z,-1.00
2022-12-13T08:22:23.818Z,-0.90
2022-12-13T08:24:52.247Z,-0.90
2022-12-13T08:27:20.198Z,-0.80
2022-12-13T08:29:48.158Z,-0.90
2022-12-13T08:32:16.048Z,-0.90
2022-12-13T08:34:45.530Z,-0.90
2022-12-13T08:37:13.730Z,-0.90
2022-12-13T08:39:41.677Z,-1.00
2022-12-13T08:42:15.903Z,-1.00
2022-12-13T08:44:45.578Z,-0.90
2022-12-13T08:47:24.354Z,-0.90
2022-12-13T08:50:02.136Z,-0.80
2022-12-13T08:52:31.963Z,-0.80
2022-12-13T08:55:08.509Z,-0.80
2022-12-13T08:57:37.083Z,-0.80
2022-12-13T09:00:05.583Z,-0.80
2022-12-13T09:02:38.347Z,-0.80
2022-12-13T09:05:10.213Z,-0.80
2022-12-13T09:07:39.583Z,-0.80
2022-12-13T09:10:26.265Z,-0.80
2022-12-13T09:13:01.105Z,-0.80
2022-12-13T09:15:34.714Z,-0.80
2022-12-13T09:18:04.271Z,-0.80
2022-12-13T09:20:41.513Z,-0.80
2022-12-13T09:23:21.506Z,-0.70
2022-12-13T09:26:05.306Z,-0.70
2022-12-13T09:28:35.318Z,-0.60
2022-12-13T09:31:07.548Z,-0.60
2022-12-13T09:33:40.872Z,-0.60
2022-12-13T09:36:13.393Z,-0.50
2022-12-13T09:38:41.491Z,-0.60
2022-12-13T09:41:20.236Z,-0.50
2022-12-13T09:43:50.683Z,-0.40
2022-12-13T09:46:34.893Z,-0.40
2022-12-13T09:49:23.035Z,-0.50
2022-12-13T09:52:10.840Z,-0.50
2022-12-13T09:54:49.015Z,-0.40
2022-12-13T09:57:31.974Z,-0.40
2022-12-13T10:00:03.253Z,-0.40
2022-12-13T10:02:33.106Z,-0.40
2022-12-13T10:05:21.604Z,-0.40
2022-12-13T10:07:56.565Z,-0.40
2022-12-13T10:10:25.348Z,-0.40
2022-12-13T10:12:57.804Z,-0.40
2022-12-13T10:15:27.150Z,-0.30
2022-12-13T10:17:55.981Z,-0.30
2022-12-13T10:20:26.275Z,-0.20
2022-12-13T10:23:31.163Z,-0.20
2022-12-13T10:25:51.106Z,-0.20
2022-12-13T10:28:25.809Z,-0.20
2022-12-13T10:30:53.782Z,-0.20
2022-12-13T10:33:25.589Z,-0.20
2022-12-13T10:36:09.040Z,-0.30
2022-12-13T10:38:40.881Z,-0.30
2022-12-13T10:41:34.987Z,-0.30
2022-12-13T10:44:15.790Z,-0.20
2022-12-13T10:46:50.006Z,-0.20
2022-12-13T10:49:20.748Z,-0.20
2022-12-13T10:51:50.321Z,-0.10
2022-12-13T10:54:28.291Z,-0.10
2022-12-13T10:57:00.286Z,-0.10
2022-12-13T10:59:33.272Z,-0.10
2022-12-13T11:02:03.746Z,0.00
2022-12-13T11:04:33.356Z,0.00
2022-12-13T11:07:21.775Z,0.00
2022-12-13T11:09:52.640Z,0.00
2022-12-13T11:12:24.228Z,0.00
2022-12-13T11:14:58.086Z,0.00
2022-12-13T11:17:28.025Z,0.00
2022-12-13T11:19:58.535Z,-0.10
2022-12-13T11:22:30.024Z,-0.10
2022-12-13T11:25:02.675Z,-0.10
2022-12-13T11:27:56.883Z,-0.10
2022-12-13T11:30:31.484Z,-0.10
2022-12-13T11:33:19.568Z,0.00
2022-12-13T11:36:00.163Z,0.00
2022-12-13T11:38:33.424Z,0.10
2022-12-13T11:41:11.363Z,0.00
2022-12-13T11:43:44.486Z,0.10
2022-12-13T11:46:18.552Z,0.10
2022-12-13T11:48:52.019Z,0.10
2022-12-13T11:51:27.093Z,0.10
2022-12-13T11:54:01.041Z,0.10
2022-12-13T11:56:34.520Z,0.20
2022-12-13T11:59:23.793Z,0.20
2022-12-13T12:02:04.835Z,0.20
2022-12-13T12:04:38.922Z,0.20
2022-12-13T12:07:31.703Z,0.20
2022-12-13T12:10:06.537Z,0.20
2022-12-13T12:12:38.013Z,0.30
2022-12-13T12:15:15.251Z,0.30
2022-12-13T12:17:43.919Z,0.40
2022-12-13T12:20:14.368Z,0.40
2022-12-13T12:23:01.779Z,0.40
2022-12-13T12:25:42.599Z,0.40
2022-12-13T12:28:23.431Z,0.40
2022-12-13T12:31:00.755Z,0.40
2022-12-13T12:33:38.709Z,0.50
2022-12-13T12:36:25.459Z,0.40
2022-12-13T12:39:11.134Z,0.40
2022-12-13T12:41:52.033Z,0.40
2022-12-13T12:44:34.797Z,0.40
2022-12-13T12:47:57.516Z,0.30
2022-12-13T12:50:36.351Z,0.30
2022-12-13T12:53:19.081Z,0.30
2022-12-13T12:55:52.666Z,0.20
2022-12-13T12:58:28.831Z,0.10
2022-12-13T13:01:11.118Z,0.10
2022-12-13T13:03:42.467Z,0.10
2022-12-13T13:06:16.974Z,0.10
2022-12-13T13:08:54.845Z,0.10
2022-12-13T13:11:25.960Z,0.10
2022-12-13T13:14:28.560Z,0.00
2022-12-13T13:16:58.545Z,0.00
2022-12-13T13:19:46.134Z,-0.10
2022-12-13T13:22:32.608Z,-0.10
2022-12-13T13:25:18.548Z,-0.10
2022-12-13T13:27:47.877Z,-0.10
2022-12-13T13:30:20.829Z,-0.10
2022-12-13T13:32:51.289Z,-0.10
2022-12-13T13:35:53.583Z,-0.20
2022-12-13T13:39:01.381Z,-0.20
2022-12-13T13:41:57.849Z,-0.20
2022-12-13T13:45:01.674Z,-0.20
2022-12-13T13:47:42.967Z,-0.20
2022-12-13T13:50:48.610Z,-0.20
2022-12-13T13:53:46.465Z,-0.30
2022-12-13T13:56:33.597Z,-0.30
2022-12-13T13:59:30.962Z,-0.40
2022-12-13T14:02:51.523Z,-0.30
2022-12-13T14:06:11.462Z,-0.40
2022-12-13T14:08:48.888Z,-0.50
2022-12-13T14:11:25.807Z,-0.60
2022-12-13T14:14:24.249Z,-0.60
2022-12-13T14:17:27.276Z,-0.60
2022-12-13T14:20:28.947Z,-0.60
2022-12-13T14:23:05.021Z,-0.60
2022-12-13T14:26:06.232Z,-0.60
2022-12-13T14:28:47.825Z,-0.70
2022-12-13T14:31:22.069Z,-0.70
2022-12-13T14:33:52.947Z,-0.70
2022-12-13T14:36:28.661Z,-0.60
2022-12-13T14:39:05.580Z,-0.60
2022-12-13T14:41:33.996Z,-0.60
2022-12-13T14:44:19.443Z,-0.70
2022-12-13T14:46:55.459Z,-0.70
2022-12-13T14:49:25.671Z,-0.70
2022-12-13T14:52:01.226Z,-0.70
2022-12-13T14:54:38.553Z,-0.70
2022-12-13T14:57:06.455Z,-0.70
2022-12-13T14:59:34.661Z,-0.80
2022-12-13T15:02:05.496Z,-0.80
2022-12-13T15:04:35.767Z,-0.70
2022-12-13T15:07:08.048Z,-0.70
2022-12-13T15:09:39.276Z,-0.70
2022-12-13T15:12:24.749Z,-0.70
2022-12-13T15:14:59.615Z,-0.80
2022-12-13T15:17:33.431Z,-0.90
2022-12-13T15:20:02.265Z,-0.90
2022-12-13T15:22:30.304Z,-0.90
2022-12-13T15:24:59.783Z,-0.90
2022-12-13T15:27:28.246Z,-0.90
2022-12-13T15:29:56.584Z,-1.00
2022-12-13T15:32:24.491Z,-1.10
2022-12-13T15:34:53.356Z,-1.10
2022-12-13T15:37:28.874Z,-1.10
2022-12-13T15:40:01.806Z,-1.10
2022-12-13T15:42:33.288Z,-1.20
2022-12-13T15:45:05.117Z,-1.20
2022-12-13T15:47:33.707Z,-1.10
2022-12-13T15:50:03.685Z,-1.10
2022-12-13T15:52:34.527Z,-1.20
2022-12-13T15:55:19.866Z,-1.20
2022-12-13T15:57:52.404Z,-1.20
2022-12-13T16:00:31.148Z,-1.10
2022-12-13T16:03:09.253Z,-1.10
2022-12-13T16:05:41.614Z,-1.10
2022-12-13T16:08:26.894Z,-1.10
2022-12-13T16:10:57.075Z,-1.00
2022-12-13T16:13:27.568Z,-1.00
2022-12-13T16:15:59.955Z,-1.00
2022-12-13T16:18:33.407Z,-1.00
2022-12-13T16:21:01.911Z,-1.00
2022-12-13T16:23:30.049Z,-1.00
2022-12-13T16:26:03.106Z,-1.00
2022-12-13T16:28:33.943Z,-1.00
2022-12-13T16:31:15.026Z,-1.00
2022-12-13T16:33:43.730Z,-1.00
2022-12-13T16:36:12.258Z,-1.00
2022-12-13T16:38:40.343Z,-1.00
2022-12-13T16:41:10.179Z,-1.00
2022-12-13T16:43:41.621Z,-1.10
2022-12-13T16:47:14.155Z,-1.10
2022-12-13T16:49:03.000Z,-1.30
2022-12-13T16:51:30.906Z,-1.30
2022-12-13T16:53:58.777Z,-1.30
2022-12-13T16:56:28.457Z,-1.20
2022-12-13T16:58:56.353Z,-1.20
2022-12-13T17:01:24.284Z,-1.20
2022-12-13T17:03:52.830Z,-1.20
2022-12-13T17:06:24.713Z,-1.10
2022-12-13T17:08:52.618Z,-1.10
2022-12-13T17:11:20.569Z,-1.10
2022-12-13T17:13:50.699Z,-1.20
2022-12-13T17:16:18.877Z,-1.10
2022-12-13T17:18:46.845Z,-1.10
2022-12-13T17:21:14.989Z,-1.10
2022-12-13T17:23:42.893Z,-1.10
2022-12-13T17:26:12.392Z,-1.20
2022-12-13T17:28:40.289Z,-1.30
2022-12-13T17:31:12.111Z,-1.30
2022-12-13T17:33:40.193Z,-1.40
2022-12-13T17:36:09.825Z,-1.30
2022-12-13T17:38:38.238Z,-1.30
2022-12-13T17:41:06.411Z,-1.20
2022-12-13T17:43:35.617Z,-1.20
2022-12-13T17:46:04.867Z,-1.20
2022-12-13T17:48:40.286Z,-1.20
2022-12-13T17:51:09.761Z,-1.20
2022-12-13T17:53:37.801Z,-1.20
2022-12-13T17:56:07.967Z,-1.20
2022-12-13T17:58:36.512Z,-1.20
2022-12-13T18:01:12.212Z,-1.20
2022-12-13T18:03:41.664Z,-1.20
2022-12-13T18:06:09.915Z,-1.20
2022-12-13T18:08:39.306Z,-1.20
2022-12-13T18:11:31.841Z,-1.20
2022-12-13T18:13:56.587Z,-1.10
2022-12-13T18:16:33.969Z,-1.10
2022-12-13T18:19:07.061Z,-1.00
2022-12-13T18:21:36.623Z,-1.00
2022-12-13T18:24:05.481Z,-1.00
2022-12-13T18:26:33.599Z,-1.00
2022-12-13T18:29:01.790Z,-1.10
2022-12-13T18:31:29.812Z,-1.10
2022-12-13T18:33:57.800Z,-1.20
2022-12-13T18:36:27.355Z,-1.20
2022-12-13T18:38:55.348Z,-1.20
2022-12-13T18:41:24.860Z,-1.10
2022-12-13T18:43:59.519Z,-1.10
2022-12-13T18:46:29.190Z,-1.00
2022-12-13T18:48:57.790Z,-1.00
2022-12-13T18:51:27.316Z,-1.00
2022-12-13T18:53:56.056Z,-1.10
2022-12-13T18:56:25.733Z,-1.20
2022-12-13T18:58:54.157Z,-1.30
2022-12-13T19:01:25.441Z,-1.30
2022-12-13T19:03:53.751Z,-1.40
2022-12-13T19:06:24.126Z,-1.40
2022-12-13T19:08:55.594Z,-1.40
2022-12-13T19:11:24.696Z,-1.40
2022-12-13T19:13:52.616Z,-1.40
2022-12-13T19:16:22.880Z,-1.50
2022-12-13T19:18:50.845Z,-1.50
2022-12-13T19:21:21.356Z,-1.50
2022-12-13T19:23:55.863Z,-1.60
2022-12-13T19:26:27.269Z,-1.60
2022-12-13T19:28:57.238Z,-1.60
2022-12-13T19:31:30.565Z,-1.70
2022-12-13T19:34:00.518Z,-1.70
2022-12-13T19:36:28.436Z,-1.70
2022-12-13T19:38:56.916Z,-1.80
2022-12-13T19:41:26.284Z,-1.80
2022-12-13T19:43:54.317Z,-1.90
2022-12-13T19:46:23.034Z,-1.90
2022-12-13T19:48:51.019Z,-1.80
2022-12-13T19:51:18.933Z,-1.80
2022-12-13T19:53:46.815Z,-1.80
2022-12-13T19:56:17.703Z,-1.90
2022-12-13T19:58:48.308Z,-1.90
2022-12-13T20:01:16.751Z,-1.80
2022-12-13T20:03:46.330Z,-1.90
2022-12-13T20:06:16.535Z,-2.00
2022-12-13T20:08:44.563Z,-2.00
2022-12-13T20:11:14.921Z,-2.00
2022-12-13T20:13:43.034Z,-2.00
2022-12-13T20:16:17.833Z,-2.00
2022-12-13T20:18:46.398Z,-2.00
2022-12-13T20:21:15.555Z,-2.10
2022-12-13T20:23:49.220Z,-2.20
2022-12-13T20:26:20.076Z,-2.40
2022-12-13T20:28:48.115Z,-2.50
2022-12-13T20:31:19.967Z,-2.60
2022-12-13T20:33:48.463Z,-2.60
2022-12-13T20:36:26.346Z,-2.60
2022-12-13T20:38:55.982Z,-2.70
2022-12-13T20:41:25.637Z,-2.70
2022-12-13T20:43:54.276Z,-3.00
2022-12-13T20:46:24.536Z,-2.90
2022-12-13T20:48:53.398Z,-2.90
2022-12-13T20:51:23.413Z,-2.90
2022-12-13T20:53:52.579Z,-2.90
2022-12-13T20:56:22.070Z,-2.90
2022-12-13T20:58:50.426Z,-2.80
2022-12-13T21:01:20.251Z,-2.80
2022-12-13T21:03:50.058Z,-2.80
2022-12-13T21:06:17.972Z,-2.70
2022-12-13T21:08:52.676Z,-2.70
2022-12-13T21:11:27.170Z,-2.80
2022-12-13T21:13:59.967Z,-2.80
2022-12-13T21:16:32.002Z,-2.80
2022-12-13T21:19:02.126Z,-2.90
2022-12-13T21:21:30.515Z,-2.90
2022-12-13T21:23:59.121Z,-2.90
2022-12-13T21:26:33.156Z,-3.00
2022-12-13T21:29:05.237Z,-3.10
2022-12-13T21:31:33.531Z,-3.20
2022-12-13T21:34:03.249Z,-3.20
2022-12-13T21:36:32.740Z,-3.20
2022-12-13T21:39:02.665Z,-3.20
2022-12-13T21:41:31.129Z,-3.20
2022-12-13T21:44:00.532Z,-3.20
2022-12-13T21:46:47.812Z,-3.10
2022-12-13T21:49:19.474Z,-3.10
2022-12-13T21:51:48.326Z,-3.10
2022-12-13T21:54:16.896Z,-3.10
2022-12-13T21:57:02.131Z,-3.20
2022-12-13T21:59:30.840Z,-3.20
2022-12-13T22:02:13.214Z,-3.30
2022-12-13T22:04:44.732Z,-3.30
2022-12-13T22:07:14.659Z,-3.40
2022-12-13T22:09:42.673Z,-3.40
2022-12-13T22:12:11.976Z,-3.40
2022-12-13T22:14:40.336Z,-3.50
2022-12-13T22:17:08.236Z,-3.50
2022-12-13T22:19:36.181Z,-3.50
2022-12-13T22:22:05.649Z,-3.50
2022-12-13T22:24:33.539Z,-3.50
2022-12-13T22:27:01.960Z,-3.60
2022-12-13T22:29:29.944Z,-3.60
2022-12-13T22:31:57.909Z,-3.50
2022-12-13T22:34:25.824Z,-3.50
2022-12-13T22:36:53.989Z,-3.50
2022-12-13T22:39:24.775Z,-3.50
2022-12-13T22:41:53.131Z,-3.50
2022-12-13T22:44:21.652Z,-3.50
2022-12-13T22:46:49.651Z,-3.50
2022-12-13T22:49:17.823Z,-3.60
2022-12-13T22:51:45.747Z,-3.60
2022-12-13T22:54:13.671Z,-3.70
2022-12-13T22:56:42.907Z,-3.70
2022-12-13T22:59:10.863Z,-3.70
2022-12-13T23:01:40.504Z,-3.70
2022-12-13T23:04:08.715Z,-3.80
2022-12-13T23:06:38.516Z,-3.90
2022-12-13T23:09:08.971Z,-3.90
2022-12-13T23:11:54.135Z,-4.00
2022-12-13T23:14:28.164Z,-4.00
2022-12-13T23:16:56.172Z,-4.00
2022-12-13T23:19:48.834Z,-4.10
2022-12-13T23:22:12.514Z,-4.10
2022-12-13T23:24:40.399Z,-4.20
2022-12-13T23:27:08.328Z,-4.20
2022-12-13T23:29:37.827Z,-4.20
2022-12-13T23:32:05.943Z,-4.20
2022-12-13T23:34:34.051Z,-4.30
2022-12-13T23:37:01.930Z,-4.30
2022-12-13T23:39:29.895Z,-4.30
2022-12-13T23:41:57.749Z,-4.40
2022-12-13T23:44:25.882Z,-4.40
2022-12-13T23:46:55.312Z,-4.40
2022-12-13T23:49:23.324Z,-4.50
2022-12-13T23:51:51.195Z,-4.50
2022-12-13T23:54:20.241Z,-4.50
2022-12-13T23:56:48.714Z,-4.50
2022-12-13T23:59:16.586Z,-4.60
